Santa Rosa, NM

5:07 AM MST on December 26, 2014 (GMT -0700)
Tucumcari Municipal | Change Station
CLOSE
Current Station
Airport
Location: Tucumcari,
Elevation: 4065 ft
Nearby Weather Stations

Elev 4065 ft 35.18 °N, 103.60 °W | Updated 14 minutes ago

Partly Cloudy
Partly Cloudy
27 °F
Feels Like 17 °F
N
10
Wind Variable Wind from ENE

Today
High -- | Low -- °F
--% Chance of Precip.
Yesterday
High -- | Low -- °F
Precip. -- in
7:04 AM 4:53 PM
Waxing Crescent, 25% visible
Pressure 29.78 in
Visibility 10.0 miles
Clouds Mostly Cloudy 1100 ft
Windchill 17 °F
Dew Point 24 °F
Humidity 89%
Rainfall 0.00 in
Snow Depth Not available.
UV 0 out of 12
Pollen 2.90 out of 12
Air Quality Not available.
Flu Activity Not available.
METAR KTCC 261153Z AUTO 06009KT 10SM BKN011 M03/M04 A2979 RMK AO2 SLP085 T10281044 10056 21028 53029

More Conditions Fewer Conditions

Pressure 29.78 in
Visibility 10.0 miles
Clouds Mostly Cloudy 1100 ft
Windchill 17 °F
Dew Point 24 °F
Humidity 89%
Rainfall 0.00 in
Snow Depth Not available.
UV 0 out of 12
Pollen 2.90 out of 12
Air Quality Not available.
Flu Activity Not available.
METAR KTCC 261153Z AUTO 06009KT 10SM BKN011 M03/M04 A2979 RMK AO2 SLP085 T10281044 10056 21028 53029

More Conditions Fewer Conditions

Nowcast | as of 4:22 am MST on December 26, 2014

Snow showers and reduced visibilities will continue through early morning. Snow moving across southern Lincoln County into southwest Chaves County will move through Bonito Lake...Alto...Ruidoso... Hollywood...Ruidoso Downs...Fort Stanton...Glencoe...Lincoln...San Patricio...and Picacho...and across highways 70 and 380. Snow showers with fog will continue along Interstate 4o near Moriarty... Clines Corners...and Santa Rosa...or from mile marker 180 to mile marker 270. Expect snowfall up to an additional inch...with another inch locally over the higher country. Visibilities will be locally reduced in freezing fog. Elsewhere...expect snowfall up to an inch locally in scattered snow showers through early morning. Fog and snow on roads will create slick and icy spots...especially on bridges... over culverts...and in sheltered areas.

×

10-Day Weather Forecast

Almanac

Astronomy

Dec. 26, 2014 Rise Set
Actual Time
Civil Twilight
Nautical Twilight
Astronomical Twilight
Moon
Length of Visible Light
Length of Day
Tomorrow will be .
, % of the Moon is Illuminated

Today's Extremes

State Highs State Lows

Community

WunderPhotos

Upload Photos

1,780,581 photos uploaded!

WunderBlogs® & News

Nearby

Air Quality

  Air Quality AQ Index Pollutant
Not available.

Snow Depth

Station Depth Elevation

Earthquake Activity

City Distance Mag. Time & Date
Minimum magnitude displayed is 2.5.

Coastal Water Temperatures

Place Temperature

Nearby Weather Stations